createdAt,value
2019-05-02T00:00:54.067Z,100569.53
2019-05-02T00:03:26.981Z,100566.88
2019-05-02T00:05:57.969Z,100566.98
2019-05-02T00:08:32.923Z,100569.65
2019-05-02T00:11:02.100Z,100567.87
2019-05-02T00:13:33.910Z,100568.30
2019-05-02T00:16:09.194Z,100564.30
2019-05-02T00:18:39.072Z,100552.78
2019-05-02T00:21:10.398Z,100558.11
2019-05-02T00:23:42.450Z,100555.87
2019-05-02T00:26:13.676Z,100556.31
2019-05-02T00:28:48.034Z,100555.41
2019-05-02T00:31:18.967Z,100555.84
2019-05-02T00:33:50.033Z,100555.84
2019-05-02T00:36:21.007Z,100549.65
2019-05-02T00:38:52.035Z,100554.55
2019-05-02T00:41:23.006Z,100550.59
2019-05-02T00:43:54.004Z,100541.28
2019-05-02T00:46:24.980Z,100538.63
2019-05-02T00:48:59.827Z,100537.36
2019-05-02T00:51:30.283Z,100536.03
2019-05-02T00:54:01.285Z,100541.38
2019-05-02T00:56:32.256Z,100530.27
2019-05-02T00:59:07.364Z,100528.03
2019-05-02T01:01:38.454Z,100529.83
2019-05-02T01:04:11.176Z,100522.36
2019-05-02T01:06:44.636Z,100518.83
2019-05-02T01:09:14.884Z,100514.88
2019-05-02T01:11:45.875Z,100523.33
2019-05-02T01:14:16.850Z,100517.58
2019-05-02T01:16:49.467Z,100517.18
2019-05-02T01:19:20.504Z,100512.30
2019-05-02T01:21:51.481Z,100518.98
2019-05-02T01:24:22.629Z,100509.66
2019-05-02T01:26:59.912Z,100518.11
2019-05-02T01:29:32.307Z,100510.63
2019-05-02T01:32:10.903Z,100510.63
2019-05-02T01:34:48.921Z,100512.03
2019-05-02T01:37:23.517Z,100515.19
2019-05-02T01:39:54.497Z,100511.71
2019-05-02T01:42:25.479Z,100509.13
2019-05-02T01:44:56.452Z,100508.31
2019-05-02T01:47:29.140Z,100510.60
2019-05-02T01:50:00.376Z,100507.50
2019-05-02T01:52:31.655Z,100509.30
2019-05-02T01:55:02.627Z,100503.59
2019-05-02T01:57:33.896Z,100497.38
2019-05-02T02:00:11.189Z,100500.03
2019-05-02T02:02:41.831Z,100497.83
2019-05-02T02:05:12.802Z,100495.19
2019-05-02T02:07:43.782Z,100484.59
2019-05-02T02:10:19.352Z,100479.34
2019-05-02T02:13:02.880Z,100490.89
2019-05-02T02:15:25.184Z,100491.41
2019-05-02T02:17:53.968Z,100486.14
2019-05-02T02:20:26.586Z,100491.47
2019-05-02T02:23:10.221Z,100481.28
2019-05-02T02:25:43.646Z,100486.59
2019-05-02T02:28:14.639Z,100479.07
2019-05-02T02:30:45.896Z,100474.69
2019-05-02T02:33:16.870Z,100471.58
2019-05-02T02:35:50.409Z,100469.37
2019-05-02T02:38:20.523Z,100467.17
2019-05-02T02:40:52.236Z,100467.17
2019-05-02T02:43:33.869Z,100464.11
2019-05-02T02:45:59.636Z,100467.65
2019-05-02T02:48:33.866Z,100467.17
2019-05-02T02:51:03.732Z,100461.46
2019-05-02T02:53:34.735Z,100462.79
2019-05-02T02:56:10.661Z,100463.67
2019-05-02T02:58:46.022Z,100455.75
2019-05-02T03:01:14.343Z,100451.33
2019-05-02T03:03:45.311Z,100450.89
2019-05-02T03:06:16.290Z,100454.87
2019-05-02T03:08:49.167Z,100448.22
2019-05-02T03:11:23.538Z,100453.09
2019-05-02T03:14:05.543Z,100443.34
2019-05-02T03:16:33.429Z,100445.57
2019-05-02T03:19:04.416Z,100444.70
2019-05-02T03:21:35.461Z,100439.88
2019-05-02T03:24:06.456Z,100440.70
2019-05-02T03:26:37.431Z,100432.33
2019-05-02T03:29:08.416Z,100432.33
2019-05-02T03:31:39.406Z,100423.89
2019-05-02T03:34:10.386Z,100428.34
2019-05-02T03:36:41.362Z,100425.69
2019-05-02T03:39:14.743Z,100423.03
2019-05-02T03:41:45.116Z,100421.27
2019-05-02T03:44:24.681Z,100426.15
2019-05-02T03:46:54.241Z,100420.88
2019-05-02T03:49:21.608Z,100421.77
2019-05-02T03:51:56.075Z,100417.78
2019-05-02T03:54:25.305Z,100415.11
2019-05-02T03:56:56.287Z,100413.73
2019-05-02T03:59:37.544Z,100423.48
2019-05-02T04:02:00.007Z,100415.94
2019-05-02T04:04:31.014Z,100419.04
2019-05-02T04:07:03.416Z,100410.63
2019-05-02T04:09:42.419Z,100408.41
2019-05-02T04:12:19.074Z,100413.73
2019-05-02T04:14:41.886Z,100406.24
2019-05-02T04:17:13.238Z,100407.14
2019-05-02T04:19:44.228Z,100415.12
2019-05-02T04:22:15.874Z,100410.25
2019-05-02T04:24:54.572Z,100404.48
2019-05-02T04:27:19.576Z,100403.59
2019-05-02T04:29:50.616Z,100392.57
2019-05-02T04:32:21.623Z,100401.83
2019-05-02T04:34:55.810Z,100396.06
2019-05-02T04:37:25.907Z,100397.39
2019-05-02T04:39:59.131Z,100390.28
2019-05-02T04:42:29.621Z,100394.70
2019-05-02T04:45:21.256Z,100392.94
2019-05-02T04:47:34.160Z,100391.16
2019-05-02T04:50:17.528Z,100392.94
2019-05-02T04:52:48.228Z,100383.20
2019-05-02T04:55:19.735Z,100391.17
2019-05-02T04:57:48.017Z,100393.84
2019-05-02T05:00:22.356Z,100392.51
2019-05-02T05:02:53.707Z,100394.28
2019-05-02T05:05:25.985Z,100390.31
2019-05-02T05:07:58.640Z,100390.75
2019-05-02T05:10:40.156Z,100390.31
2019-05-02T05:13:02.408Z,100388.58
2019-05-02T05:15:41.114Z,100391.64
2019-05-02T05:18:10.417Z,100386.32
2019-05-02T05:20:40.517Z,100388.98
2019-05-02T05:23:15.738Z,100390.31
2019-05-02T05:25:48.293Z,100392.57
2019-05-02T05:28:20.247Z,100385.05
2019-05-02T05:30:52.209Z,100393.91
2019-05-02T05:33:23.362Z,100397.91
2019-05-02T05:35:54.708Z,100385.05
2019-05-02T05:38:28.560Z,100390.82
2019-05-02T05:41:03.101Z,100386.39
2019-05-02T05:43:31.194Z,100389.98
2019-05-02T05:46:10.644Z,100389.11
2019-05-02T05:48:37.133Z,100380.70
2019-05-02T05:51:11.825Z,100392.23
2019-05-02T05:53:40.267Z,100393.99
2019-05-02T05:56:11.244Z,100382.45
2019-05-02T05:58:50.496Z,100384.69
2019-05-02T06:01:14.920Z,100388.22
2019-05-02T06:03:47.373Z,100394.88
2019-05-02T06:06:22.925Z,100384.69
2019-05-02T06:08:54.191Z,100390.88
2019-05-02T06:11:23.993Z,100385.95
2019-05-02T06:13:54.971Z,100388.14
2019-05-02T06:16:25.945Z,100382.83
2019-05-02T06:18:57.078Z,100396.96
2019-05-02T06:21:28.046Z,100391.19
2019-05-02T06:23:59.032Z,100384.09
2019-05-02T06:26:30.088Z,100387.62
2019-05-02T06:29:01.196Z,100389.38
2019-05-02T06:31:32.266Z,100392.44
2019-05-02T06:34:07.043Z,100393.77
2019-05-02T06:36:36.937Z,100394.20
2019-05-02T06:39:08.756Z,100383.56
2019-05-02T06:41:39.740Z,100384.83
2019-05-02T06:44:10.909Z,100386.16
2019-05-02T06:46:41.973Z,100388.82
2019-05-02T06:49:12.943Z,100382.61
2019-05-02T06:51:43.947Z,100388.42
2019-05-02T06:54:18.070Z,100375.52
2019-05-02T06:56:48.250Z,100363.55
2019-05-02T06:59:20.334Z,100365.30
2019-05-02T07:01:52.372Z,100366.13
2019-05-02T07:04:25.068Z,100360.79
2019-05-02T07:06:59.299Z,100369.64
2019-05-02T07:09:39.862Z,100365.14
2019-05-02T07:12:02.155Z,100358.92
2019-05-02T07:14:34.113Z,100361.09
2019-05-02T07:17:09.451Z,100357.95
2019-05-02T07:19:47.541Z,100354.40
2019-05-02T07:22:18.512Z,100353.97
2019-05-02T07:24:49.569Z,100359.72
2019-05-02T07:27:20.551Z,100359.72
2019-05-02T07:29:52.054Z,100358.39
2019-05-02T07:32:25.344Z,100356.16
2019-05-02T07:34:57.004Z,100352.63
2019-05-02T07:37:27.989Z,100352.20
2019-05-02T07:39:58.975Z,100353.11
2019-05-02T07:42:29.946Z,100353.53
2019-05-02T07:45:04.456Z,100347.31
2019-05-02T07:47:40.308Z,100351.29
2019-05-02T07:50:10.321Z,100353.50
2019-05-02T07:52:41.415Z,100357.02
2019-05-02T07:55:12.579Z,100348.58
2019-05-02T07:57:43.586Z,100345.89
2019-05-02T08:00:15.005Z,100353.44
2019-05-02T08:02:45.997Z,100348.09
2019-05-02T08:05:21.485Z,100358.25
2019-05-02T08:07:53.478Z,100354.75
2019-05-02T08:10:24.110Z,100346.34
2019-05-02T08:12:55.048Z,100350.34
2019-05-02T08:15:26.021Z,100343.69
2019-05-02T08:17:57.017Z,100341.45
2019-05-02T08:20:28.022Z,100340.58
2019-05-02T08:22:59.029Z,100343.62
2019-05-02T08:25:30.009Z,100346.70
2019-05-02T08:28:04.697Z,100344.46
2019-05-02T08:30:40.507Z,100344.02
2019-05-02T08:33:09.644Z,100346.63
2019-05-02T08:35:40.619Z,100348.81
2019-05-02T08:38:12.493Z,100354.09
2019-05-02T08:40:47.743Z,100346.50
2019-05-02T08:43:17.317Z,100344.66
2019-05-02T08:45:48.374Z,100342.86
2019-05-02T08:48:19.352Z,100348.13
2019-05-02T08:50:50.360Z,100347.62
2019-05-02T08:53:22.270Z,100349.36
2019-05-02T08:55:53.779Z,100347.95
2019-05-02T08:58:24.796Z,100347.94
2019-05-02T09:00:55.769Z,100346.10
2019-05-02T09:03:26.742Z,100352.31
2019-05-02T09:06:05.633Z,100351.39
2019-05-02T09:08:30.398Z,100349.16
2019-05-02T09:11:01.486Z,100350.48
2019-05-02T09:13:32.997Z,100359.34
2019-05-02T09:16:05.944Z,100352.66
2019-05-02T09:18:41.053Z,100355.27
2019-05-02T09:21:09.528Z,100353.04
2019-05-02T09:23:42.006Z,100353.04
2019-05-02T09:26:13.680Z,100349.09
2019-05-02T09:28:44.917Z,100353.92
2019-05-02T09:31:15.898Z,100351.69
2019-05-02T09:33:47.058Z,100356.48
2019-05-02T09:36:18.139Z,100350.69
2019-05-02T09:38:56.009Z,100345.31
2019-05-02T09:41:22.228Z,100347.52
2019-05-02T09:43:53.824Z,100341.30
2019-05-02T09:46:24.815Z,100342.61
2019-05-02T09:48:56.999Z,100340.31
2019-05-02T09:51:28.931Z,100338.08
2019-05-02T09:54:02.708Z,100346.00
2019-05-02T09:56:32.643Z,100338.44
2019-05-02T09:59:23.256Z,100341.09
2019-05-02T10:01:38.077Z,100333.53
2019-05-02T10:04:09.057Z,100343.61
2019-05-02T10:06:40.037Z,100334.23
2019-05-02T10:09:12.091Z,100335.95
2019-05-02T10:11:43.230Z,100337.69
2019-05-02T10:14:14.276Z,100330.56
2019-05-02T10:16:45.262Z,100331.82
2019-05-02T10:19:16.245Z,100326.47
2019-05-02T10:21:52.429Z,100325.51
2019-05-02T10:24:22.220Z,100324.08
2019-05-02T10:26:57.085Z,100324.42
2019-05-02T10:29:28.317Z,100327.59
2019-05-02T10:31:58.843Z,100319.95
2019-05-02T10:34:29.839Z,100315.35
2019-05-02T10:37:02.832Z,100313.89
2019-05-02T10:39:37.778Z,100308.42
2019-05-02T10:42:06.649Z,100312.34
2019-05-02T10:44:37.630Z,100314.92
2019-05-02T10:47:08.608Z,100302.02
2019-05-02T10:49:42.646Z,100305.92
2019-05-02T10:52:13.686Z,100304.59
2019-05-02T10:54:44.660Z,100295.69
2019-05-02T10:57:15.654Z,100296.48
2019-05-02T10:59:46.687Z,100298.19
2019-05-02T11:02:23.420Z,100291.44
2019-05-02T11:05:07.753Z,100290.92
2019-05-02T11:07:38.753Z,100282.89
2019-05-02T11:10:09.992Z,100278.41
2019-05-02T11:12:46.850Z,100272.08
2019-05-02T11:15:15.390Z,100279.93
2019-05-02T11:17:47.656Z,100276.69
2019-05-02T11:20:18.622Z,100277.87
2019-05-02T11:22:52.066Z,100268.44
2019-05-02T11:25:22.586Z,100261.71
2019-05-02T11:27:57.368Z,100260.70
2019-05-02T11:30:26.758Z,100259.25
2019-05-02T11:32:57.735Z,100253.72
2019-05-02T11:35:28.749Z,100251.80
2019-05-02T11:37:59.720Z,100247.25
2019-05-02T11:40:32.127Z,100245.84
2019-05-02T11:43:06.780Z,100240.83
2019-05-02T11:45:36.044Z,100239.83
2019-05-02T11:48:09.355Z,100237.02
2019-05-02T11:50:39.719Z,100237.70
2019-05-02T11:53:23.206Z,100224.67
2019-05-02T11:55:43.872Z,100225.73
2019-05-02T11:58:14.934Z,100217.27
2019-05-02T12:00:49.612Z,100211.11
2019-05-02T12:03:28.156Z,100213.38
2019-05-02T12:05:56.881Z,100202.78
2019-05-02T12:08:27.858Z,100206.37
2019-05-02T12:11:01.274Z,100201.95
2019-05-02T12:13:32.307Z,100197.44
2019-05-02T12:16:04.958Z,100190.23
2019-05-02T12:18:36.410Z,100193.80
2019-05-02T12:21:07.386Z,100191.64
2019-05-02T12:23:38.434Z,100176.95
2019-05-02T12:26:09.427Z,100181.56
2019-05-02T12:28:42.772Z,100179.52
2019-05-02T12:31:22.142Z,100182.27
2019-05-02T12:33:56.144Z,100178.36
2019-05-02T12:36:27.111Z,100177.27
2019-05-02T12:38:58.100Z,100171.69
2019-05-02T12:41:29.077Z,100168.88
2019-05-02T12:44:02.076Z,100176.78
2019-05-02T12:46:32.723Z,100172.39
2019-05-02T12:49:03.743Z,100172.89
2019-05-02T12:51:34.725Z,100168.92
2019-05-02T12:54:06.061Z,100167.66
2019-05-02T12:56:37.044Z,100165.50
2019-05-02T12:59:08.045Z,100168.72
2019-05-02T13:01:39.112Z,100166.14
2019-05-02T13:04:15.927Z,100157.81
2019-05-02T13:06:46.948Z,100159.33
2019-05-02T13:09:17.954Z,100163.64
2019-05-02T13:12:05.402Z,100163.86
2019-05-02T13:14:36.645Z,100161.44
2019-05-02T13:17:07.623Z,100155.59
2019-05-02T13:19:41.528Z,100150.45
2019-05-02T13:22:29.060Z,100150.11
2019-05-02T13:25:02.369Z,100148.52
2019-05-02T13:27:43.295Z,100143.96
2019-05-02T13:30:12.285Z,100147.72
2019-05-02T13:32:48.148Z,100146.02
2019-05-02T13:35:19.011Z,100141.28
2019-05-02T13:37:51.778Z,100147.29
2019-05-02T13:40:24.488Z,100135.87
2019-05-02T13:42:55.462Z,100137.38
2019-05-02T13:45:43.144Z,100134.78
2019-05-02T13:48:14.258Z,100134.40
2019-05-02T13:50:45.261Z,100129.25
2019-05-02T13:53:16.239Z,100133.77
2019-05-02T13:55:54.611Z,100124.94
2019-05-02T13:58:28.923Z,100125.86
2019-05-02T14:00:58.378Z,100129.45
2019-05-02T14:03:29.342Z,100117.11
2019-05-02T14:06:00.341Z,100124.26
2019-05-02T14:08:36.796Z,100115.48
2019-05-02T14:11:05.430Z,100114.67
2019-05-02T14:13:36.877Z,100124.53
2019-05-02T14:16:07.861Z,100121.44
2019-05-02T14:18:38.839Z,100118.46
2019-05-02T14:21:09.904Z,100120.26
2019-05-02T14:23:42.030Z,100120.83
2019-05-02T14:26:13.061Z,100130.30
2019-05-02T14:28:44.870Z,100127.70
2019-05-02T14:31:15.849Z,100131.83
2019-05-02T14:33:48.503Z,100139.05
2019-05-02T14:36:19.475Z,100131.52
2019-05-02T14:38:52.509Z,100121.41
2019-05-02T14:41:25.259Z,100124.53
2019-05-02T14:43:56.234Z,100125.45
2019-05-02T14:46:35.371Z,100131.33
2019-05-02T14:49:00.079Z,100123.70
2019-05-02T14:51:33.090Z,100115.75
2019-05-02T14:54:08.279Z,100114.34
2019-05-02T14:56:43.498Z,100111.36
2019-05-02T14:59:15.281Z,100111.05
2019-05-02T15:01:47.018Z,100112.47
2019-05-02T15:04:18.143Z,100105.02
2019-05-02T15:06:52.306Z,100103.72
2019-05-02T15:09:26.891Z,100101.55
2019-05-02T15:11:58.329Z,100097.08
2019-05-02T15:14:32.643Z,100099.37
2019-05-02T15:17:04.501Z,100098.07
2019-05-02T15:19:35.487Z,100099.86
2019-05-02T15:22:06.535Z,100094.98
2019-05-02T15:24:38.091Z,100096.73
2019-05-02T15:27:13.306Z,100090.48
2019-05-02T15:29:42.180Z,100090.86
2019-05-02T15:32:27.784Z,100086.92
2019-05-02T15:35:08.678Z,100077.16
2019-05-02T15:37:41.637Z,100081.00
2019-05-02T15:42:47.785Z,100082.38
2019-05-02T15:45:20.359Z,100077.03
2019-05-02T15:47:52.610Z,100081.92
2019-05-02T15:50:25.583Z,100074.33
2019-05-02T15:53:09.778Z,100071.13
2019-05-02T15:55:39.524Z,100080.02
2019-05-02T15:58:22.581Z,100082.65
2019-05-02T16:00:56.445Z,100074.98
2019-05-02T16:03:27.759Z,100074.59
2019-05-02T16:05:58.738Z,100079.48
2019-05-02T16:08:32.572Z,100076.73
2019-05-02T16:11:03.644Z,100073.15
2019-05-02T16:13:34.627Z,100071.81
2019-05-02T16:16:05.649Z,100064.64
2019-05-02T16:18:40.935Z,100061.44
2019-05-02T16:21:26.394Z,100058.27
2019-05-02T16:24:12.075Z,100058.19
2019-05-02T16:26:44.916Z,100064.07
2019-05-02T16:29:19.499Z,100058.77
2019-05-02T16:31:55.035Z,100062.81
2019-05-02T16:34:27.375Z,100052.12
2019-05-02T16:37:07.102Z,100052.66
2019-05-02T16:39:37.486Z,100053.99
2019-05-02T16:42:08.730Z,100052.23
2019-05-02T16:44:39.732Z,100051.74
2019-05-02T16:47:10.741Z,100056.13
2019-05-02T16:49:41.979Z,100049.45
2019-05-02T16:52:15.999Z,100052.55
2019-05-02T16:54:46.408Z,100051.20
2019-05-02T16:57:22.174Z,100051.20
2019-05-02T16:59:53.895Z,100046.28
2019-05-02T17:02:22.783Z,100051.13
2019-05-02T17:04:54.914Z,100046.63
2019-05-02T17:07:27.568Z,100041.78
2019-05-02T17:10:03.263Z,100036.44
2019-05-02T17:12:35.533Z,100041.78
2019-05-02T17:15:31.055Z,100040.94
2019-05-02T17:18:04.896Z,100030.67
2019-05-02T17:20:35.034Z,100029.95
2019-05-02T17:23:07.383Z,100022.36
2019-05-02T17:25:38.873Z,100017.81
2019-05-02T17:28:11.180Z,100016.40
2019-05-02T17:30:43.071Z,100012.73
2019-05-02T17:33:16.337Z,100018.41
2019-05-02T17:35:51.553Z,100023.19
2019-05-02T17:38:27.360Z,100026.70
2019-05-02T17:40:54.343Z,100023.91
2019-05-02T17:43:24.977Z,100019.85
2019-05-02T17:45:56.381Z,100025.66
2019-05-02T17:48:29.339Z,100020.31
2019-05-02T17:51:04.579Z,100029.25
2019-05-02T17:53:41.065Z,100025.77
2019-05-02T17:56:12.991Z,100027.15
2019-05-02T17:58:47.302Z,100036.13
2019-05-02T18:01:18.414Z,100033.98
2019-05-02T18:03:49.374Z,100035.36
2019-05-02T18:06:30.804Z,100035.91
2019-05-02T18:08:55.252Z,100028.80
2019-05-02T18:11:29.574Z,100036.44
2019-05-02T18:13:58.408Z,100030.25
2019-05-02T18:16:29.409Z,100023.16
2019-05-02T18:19:01.827Z,100029.42
2019-05-02T18:21:32.994Z,100027.70
2019-05-02T18:24:06.078Z,100028.62
2019-05-02T18:26:37.901Z,100024.61
2019-05-02T18:29:08.880Z,100033.54
2019-05-02T18:31:47.143Z,100039.76
2019-05-02T18:34:20.396Z,100053.16
2019-05-02T18:36:46.298Z,100075.97
2019-05-02T18:39:17.269Z,100085.89
2019-05-02T18:41:48.412Z,100080.27
2019-05-02T18:44:19.390Z,100081.86
2019-05-02T18:46:51.919Z,100080.75
2019-05-02T18:49:23.463Z,100081.84
2019-05-02T18:51:57.338Z,100082.47
2019-05-02T18:54:27.536Z,100084.94
2019-05-02T18:56:58.494Z,100094.45
2019-05-02T18:59:29.460Z,100097.71
2019-05-02T19:02:02.156Z,100095.56
2019-05-02T19:04:38.239Z,100102.31
2019-05-02T19:07:07.591Z,100094.44
2019-05-02T19:09:48.394Z,100100.75
2019-05-02T19:12:19.422Z,100099.91
2019-05-02T19:14:44.201Z,100095.09
2019-05-02T19:17:15.176Z,100090.77
2019-05-02T19:19:46.168Z,100096.17
2019-05-02T19:22:17.207Z,100096.70
2019-05-02T19:24:48.544Z,100095.47
2019-05-02T19:27:25.223Z,100098.23
2019-05-02T19:29:54.682Z,100089.84
2019-05-02T19:32:28.351Z,100091.86
2019-05-02T19:35:03.238Z,100090.52
2019-05-02T19:37:31.626Z,100095.85
2019-05-02T19:40:02.900Z,100099.86
2019-05-02T19:42:33.853Z,100101.19
2019-05-02T19:45:11.399Z,100102.09
2019-05-02T19:47:38.921Z,100108.31
2019-05-02T19:50:40.321Z,100105.22
2019-05-02T19:53:14.822Z,100103.44
2019-05-02T19:55:38.961Z,100101.67
2019-05-02T19:58:09.927Z,100122.63
2019-05-02T20:00:42.351Z,100122.63
2019-05-02T20:03:21.557Z,100123.01
2019-05-02T20:05:48.495Z,100123.95
2019-05-02T20:08:22.837Z,100129.31
2019-05-02T20:10:56.735Z,100140.86
2019-05-02T20:13:28.115Z,100138.23
2019-05-02T20:16:11.867Z,100138.78
2019-05-02T20:18:47.135Z,100161.11
2019-05-02T20:21:26.866Z,100152.02
2019-05-02T20:23:52.819Z,100157.50
2019-05-02T20:26:23.859Z,100162.14
2019-05-02T20:28:54.822Z,100167.19
2019-05-02T20:31:25.809Z,100164.25
2019-05-02T20:33:56.777Z,100172.38
2019-05-02T20:36:27.778Z,100173.38
2019-05-02T20:38:58.765Z,100180.59
2019-05-02T20:41:29.900Z,100177.08
2019-05-02T20:44:02.631Z,100183.80
2019-05-02T20:46:33.725Z,100177.17
2019-05-02T20:49:04.714Z,100175.04
2019-05-02T20:51:35.685Z,100184.45
2019-05-02T20:54:06.688Z,100178.80
2019-05-02T20:56:37.667Z,100172.25
2019-05-02T20:59:08.643Z,100187.83
2019-05-02T21:01:39.612Z,100182.58
2019-05-02T21:04:12.077Z,100184.82
2019-05-02T21:06:44.782Z,100184.82
2019-05-02T21:09:17.380Z,100197.31
2019-05-02T21:11:50.015Z,100198.27
2019-05-02T21:14:21.680Z,100197.48
2019-05-02T21:16:52.637Z,100195.75
2019-05-02T21:19:23.627Z,100195.83
2019-05-02T21:21:55.134Z,100193.27
2019-05-02T21:24:26.210Z,100194.25
2019-05-02T21:26:57.243Z,100191.66
2019-05-02T21:29:28.242Z,100193.04
2019-05-02T21:31:59.204Z,100197.97
2019-05-02T21:34:31.848Z,100203.31
2019-05-02T21:37:02.856Z,100202.86
2019-05-02T21:39:34.898Z,100201.12
2019-05-02T21:42:05.871Z,100201.62
2019-05-02T21:44:36.845Z,100195.00
2019-05-02T21:47:07.819Z,100197.71
2019-05-02T21:49:43.282Z,100201.30
2019-05-02T21:52:15.979Z,100203.52
2019-05-02T21:54:54.354Z,100205.79
2019-05-02T21:57:25.324Z,100203.17
2019-05-02T21:59:56.286Z,100214.27
2019-05-02T22:02:27.324Z,100223.63
2019-05-02T22:04:58.293Z,100222.33
2019-05-02T22:07:29.260Z,100217.02
2019-05-02T22:10:00.294Z,100221.02
2019-05-02T22:12:31.778Z,100205.98
2019-05-02T22:15:02.849Z,100215.77
2019-05-02T22:17:33.798Z,100216.29
2019-05-02T22:20:06.708Z,100214.15
2019-05-02T22:22:37.681Z,100214.59
2019-05-02T22:25:08.645Z,100220.84
2019-05-02T22:27:39.628Z,100215.59
2019-05-02T22:30:12.568Z,100218.27
2019-05-02T22:32:43.534Z,100223.13
2019-05-02T22:35:14.742Z,100225.80
2019-05-02T22:37:47.381Z,100223.64
2019-05-02T22:40:18.722Z,100224.09
2019-05-02T22:42:49.707Z,100221.02
2019-05-02T22:45:21.796Z,100221.52
2019-05-02T22:47:52.850Z,100229.00
2019-05-02T22:50:23.912Z,100229.45
2019-05-02T22:52:54.902Z,100236.09
2019-05-02T22:55:25.904Z,100233.04
2019-05-02T22:57:56.854Z,100240.57
2019-05-02T23:00:28.017Z,100235.70
2019-05-02T23:02:58.986Z,100233.49
2019-05-02T23:05:29.967Z,100239.64
2019-05-02T23:08:02.292Z,100239.70
2019-05-02T23:10:33.402Z,100240.97
2019-05-02T23:13:04.403Z,100246.29
2019-05-02T23:15:35.406Z,100245.41
2019-05-02T23:18:06.438Z,100246.79
2019-05-02T23:20:37.498Z,100247.69
2019-05-02T23:23:08.451Z,100244.20
2019-05-02T23:25:53.404Z,100253.08
2019-05-02T23:28:32.008Z,100259.30
2019-05-02T23:31:03.043Z,100263.35
2019-05-02T23:33:52.896Z,100261.66
2019-05-02T23:36:23.871Z,100258.56
2019-05-02T23:38:54.866Z,100251.55
2019-05-02T23:41:25.852Z,100252.00
2019-05-02T23:43:56.843Z,100255.11
2019-05-02T23:46:27.848Z,100264.41
2019-05-02T23:48:58.837Z,100261.33
2019-05-02T23:51:31.897Z,100252.91
2019-05-02T23:54:02.676Z,100253.34
2019-05-02T23:56:33.648Z,100256.50
2019-05-02T23:59:04.657Z,100257.41
